createdAt,value
2024-01-14T00:01:16.475Z,15.00
2024-01-14T00:04:04.364Z,15.00
2024-01-14T00:06:32.010Z,15.00
2024-01-14T00:08:59.673Z,15.02
2024-01-14T00:11:27.964Z,15.01
2024-01-14T00:13:55.651Z,15.00
2024-01-14T00:16:23.319Z,15.00
2024-01-14T00:18:51.043Z,15.00
2024-01-14T00:21:18.654Z,14.99
2024-01-14T00:23:46.958Z,14.98
2024-01-14T00:26:14.348Z,15.00
2024-01-14T00:28:42.081Z,15.00
2024-01-14T00:31:09.581Z,15.00
2024-01-14T00:33:37.695Z,15.01
2024-01-14T00:36:05.717Z,15.01
2024-01-14T00:38:33.546Z,15.01
2024-01-14T00:41:01.254Z,15.00
2024-01-14T00:43:29.211Z,15.01
2024-01-14T00:45:56.736Z,15.01
2024-01-14T00:48:24.558Z,15.01
2024-01-14T00:50:52.230Z,15.00
2024-01-14T00:53:19.840Z,15.00
2024-01-14T00:55:48.105Z,14.99
2024-01-14T00:58:16.060Z,14.99
2024-01-14T01:00:44.004Z,15.01
2024-01-14T01:03:12.077Z,14.99
2024-01-14T01:05:40.173Z,15.01
2024-01-14T01:08:07.848Z,14.99
2024-01-14T01:10:35.377Z,14.99
2024-01-14T01:13:03.270Z,15.00
2024-01-14T01:15:31.100Z,15.00
2024-01-14T01:17:58.897Z,14.99
2024-01-14T01:20:26.484Z,15.01
2024-01-14T01:22:54.767Z,15.00
2024-01-14T01:25:22.256Z,15.01
2024-01-14T01:27:49.900Z,15.00
2024-01-14T01:30:17.365Z,15.01
2024-01-14T01:32:45.268Z,15.02
2024-01-14T01:35:12.992Z,15.00
2024-01-14T01:37:40.802Z,15.01
2024-01-14T01:40:10.612Z,15.00
2024-01-14T01:42:38.300Z,15.01
2024-01-14T01:45:06.174Z,15.01
2024-01-14T01:47:34.638Z,15.00
2024-01-14T01:50:02.556Z,15.01
2024-01-14T01:52:30.689Z,15.00
2024-01-14T01:54:58.679Z,15.00
2024-01-14T01:57:28.956Z,15.02
2024-01-14T01:59:56.804Z,15.02
2024-01-14T02:02:24.765Z,15.01
2024-01-14T02:04:52.900Z,15.00
2024-01-14T02:07:23.409Z,15.02
2024-01-14T02:09:51.476Z,15.01
2024-01-14T02:12:19.137Z,15.00
2024-01-14T02:14:46.827Z,15.00
2024-01-14T02:17:14.494Z,15.01
2024-01-14T02:19:42.124Z,15.00
2024-01-14T02:22:17.307Z,15.01
2024-01-14T02:24:45.231Z,15.01
2024-01-14T02:27:12.974Z,15.01
2024-01-14T02:29:40.414Z,15.01
2024-01-14T02:32:07.949Z,15.01
2024-01-14T02:34:37.259Z,15.00
2024-01-14T02:37:05.136Z,15.01
2024-01-14T02:39:32.710Z,15.01
2024-01-14T02:42:00.637Z,15.00
2024-01-14T02:44:28.046Z,15.01
2024-01-14T02:46:55.808Z,15.00
2024-01-14T02:49:23.380Z,15.00
2024-01-14T02:51:51.274Z,14.99
2024-01-14T02:54:18.963Z,14.99
2024-01-14T02:56:46.606Z,15.00
2024-01-14T02:59:13.943Z,15.00
2024-01-14T03:01:47.516Z,14.98
2024-01-14T03:04:15.685Z,14.99
2024-01-14T03:06:43.887Z,14.97
2024-01-14T03:09:11.647Z,14.99
2024-01-14T03:11:39.293Z,15.00
2024-01-14T03:14:06.663Z,14.99
2024-01-14T03:16:34.283Z,15.00
2024-01-14T03:19:01.912Z,14.99
2024-01-14T03:21:29.845Z,14.99
2024-01-14T03:23:57.526Z,14.99
2024-01-14T03:26:25.141Z,14.99
2024-01-14T03:28:52.423Z,14.99
2024-01-14T03:31:20.178Z,14.98
2024-01-14T03:33:47.671Z,15.01
2024-01-14T03:36:16.069Z,14.98
2024-01-14T03:38:43.898Z,15.00
2024-01-14T03:41:12.484Z,14.99
2024-01-14T03:43:39.896Z,14.97
2024-01-14T03:46:08.338Z,14.98
2024-01-14T03:48:35.768Z,14.98
2024-01-14T03:51:03.939Z,14.97
2024-01-14T03:53:31.307Z,14.96
2024-01-14T03:55:58.895Z,14.97
2024-01-14T03:58:26.396Z,14.97
2024-01-14T04:00:54.156Z,14.98
2024-01-14T04:03:21.792Z,14.99
2024-01-14T04:05:49.801Z,14.99
2024-01-14T04:08:17.361Z,14.98
2024-01-14T04:10:45.041Z,14.97
2024-01-14T04:13:32.261Z,14.98
2024-01-14T04:16:01.769Z,14.98
2024-01-14T04:18:30.464Z,14.96
2024-01-14T04:20:58.597Z,14.97
2024-01-14T04:23:26.028Z,14.97
2024-01-14T04:25:54.151Z,14.98
2024-01-14T04:28:21.920Z,14.96
2024-01-14T04:30:52.411Z,14.98
2024-01-14T04:33:19.978Z,14.97
2024-01-14T04:35:48.116Z,14.98
2024-01-14T04:38:15.523Z,14.98
2024-01-14T04:40:43.128Z,15.00
2024-01-14T04:43:12.839Z,15.00
2024-01-14T04:45:40.602Z,15.00
2024-01-14T04:48:08.268Z,15.01
2024-01-14T04:50:37.314Z,15.02
2024-01-14T04:53:04.733Z,15.03
2024-01-14T04:55:32.680Z,15.04
2024-01-14T04:58:00.346Z,15.02
2024-01-14T05:00:27.735Z,15.03
2024-01-14T05:02:55.357Z,15.01
2024-01-14T05:05:22.744Z,15.01
2024-01-14T05:07:50.374Z,15.02
2024-01-14T05:10:17.960Z,15.02
2024-01-14T05:12:45.568Z,15.03
2024-01-14T05:15:13.148Z,15.02
2024-01-14T05:17:41.035Z,15.03
2024-01-14T05:20:10.363Z,15.02
2024-01-14T05:22:37.941Z,15.02
2024-01-14T05:25:06.001Z,15.01
2024-01-14T05:27:33.634Z,15.00
2024-01-14T05:30:01.160Z,15.00
2024-01-14T05:32:29.105Z,15.00
2024-01-14T05:34:56.509Z,15.00
2024-01-14T05:37:24.174Z,14.99
2024-01-14T05:39:51.579Z,14.99
2024-01-14T05:42:19.176Z,14.97
2024-01-14T05:44:46.549Z,14.98
2024-01-14T05:47:14.092Z,14.97
2024-01-14T05:49:41.694Z,14.97
2024-01-14T05:52:09.341Z,14.95
2024-01-14T05:54:36.964Z,14.97
2024-01-14T05:57:05.371Z,14.95
2024-01-14T05:59:32.898Z,14.95
2024-01-14T06:02:00.562Z,14.94
2024-01-14T06:04:28.205Z,14.94
2024-01-14T06:06:55.900Z,14.94
2024-01-14T06:09:23.356Z,14.95
2024-01-14T06:11:51.098Z,14.94
2024-01-14T06:14:18.644Z,14.93
2024-01-14T06:16:46.377Z,14.93
2024-01-14T06:19:13.941Z,14.94
2024-01-14T06:21:43.355Z,14.94
2024-01-14T06:24:13.724Z,14.93
2024-01-14T06:26:41.460Z,14.95
2024-01-14T06:29:09.019Z,14.94
2024-01-14T06:31:36.978Z,14.92
2024-01-14T06:34:05.074Z,14.93
2024-01-14T06:36:32.951Z,14.96
2024-01-14T06:39:00.553Z,14.93
2024-01-14T06:41:29.314Z,14.92
2024-01-14T06:43:56.826Z,14.94
2024-01-14T06:46:24.545Z,14.93
2024-01-14T06:48:52.016Z,14.92
2024-01-14T06:51:19.519Z,14.93
2024-01-14T06:53:47.627Z,14.94
2024-01-14T06:56:17.613Z,14.93
2024-01-14T06:58:50.621Z,14.93
2024-01-14T07:01:18.111Z,14.92
2024-01-14T07:03:45.828Z,14.92
2024-01-14T07:06:13.398Z,14.92
2024-01-14T07:08:41.431Z,14.91
2024-01-14T07:11:08.859Z,14.91
2024-01-14T07:13:36.455Z,14.90
2024-01-14T07:16:04.252Z,14.91
2024-01-14T07:18:32.025Z,14.91
2024-01-14T07:20:59.545Z,14.89
2024-01-14T07:23:43.201Z,14.90
2024-01-14T07:26:21.753Z,14.90
2024-01-14T07:28:53.803Z,14.88
2024-01-14T07:31:24.244Z,14.89
2024-01-14T07:33:52.802Z,14.89
2024-01-14T07:36:21.157Z,14.88
2024-01-14T07:38:50.737Z,14.88
2024-01-14T07:41:18.186Z,14.86
2024-01-14T07:43:46.136Z,14.86
2024-01-14T07:46:13.695Z,14.86
2024-01-14T07:48:43.401Z,14.85
2024-01-14T07:51:11.154Z,14.89
2024-01-14T07:53:38.921Z,14.90
2024-01-14T07:56:06.610Z,14.92
2024-01-14T07:58:34.258Z,14.91
2024-01-14T08:01:03.498Z,14.92
2024-01-14T08:03:32.571Z,14.93
2024-01-14T08:06:01.242Z,14.95
2024-01-14T08:08:29.820Z,14.95
2024-01-14T08:10:57.353Z,14.95
2024-01-14T08:13:25.112Z,14.96
2024-01-14T08:15:57.851Z,14.98
2024-01-14T08:18:31.909Z,14.98
2024-01-14T08:21:00.484Z,14.98
2024-01-14T08:23:33.708Z,14.97
2024-01-14T08:26:02.662Z,14.99
2024-01-14T08:28:32.175Z,14.99
2024-01-14T08:30:59.808Z,14.95
2024-01-14T08:33:28.998Z,14.89
2024-01-14T08:35:57.113Z,14.95
2024-01-14T08:38:25.495Z,14.97
2024-01-14T08:40:53.530Z,14.99
2024-01-14T08:43:21.475Z,15.01
2024-01-14T08:45:48.885Z,15.02
2024-01-14T08:48:16.921Z,14.92
2024-01-14T08:50:44.444Z,14.85
2024-01-14T08:53:11.991Z,14.78
2024-01-14T08:55:39.434Z,14.73
2024-01-14T08:58:07.103Z,14.69
2024-01-14T09:00:34.694Z,14.66
2024-01-14T09:03:02.435Z,14.61
2024-01-14T09:05:29.975Z,14.57
2024-01-14T09:07:57.724Z,14.54
2024-01-14T09:10:25.154Z,14.51
2024-01-14T09:12:52.825Z,14.49
2024-01-14T09:15:21.749Z,14.46
2024-01-14T09:17:49.836Z,14.44
2024-01-14T09:20:17.382Z,14.42
2024-01-14T09:22:45.039Z,14.40
2024-01-14T09:25:13.588Z,14.38
2024-01-14T09:27:41.673Z,14.35
2024-01-14T09:30:09.525Z,14.32
2024-01-14T09:32:37.388Z,14.31
2024-01-14T09:35:05.379Z,14.29
2024-01-14T09:37:33.305Z,14.28
2024-01-14T09:40:00.712Z,14.27
2024-01-14T09:42:38.206Z,14.25
2024-01-14T09:45:06.975Z,14.23
2024-01-14T09:47:36.404Z,14.22
2024-01-14T09:50:04.499Z,14.20
2024-01-14T09:52:33.999Z,14.20
2024-01-14T09:55:02.368Z,14.30
2024-01-14T09:57:33.301Z,14.41
2024-01-14T10:00:06.643Z,14.41
2024-01-14T10:02:37.458Z,14.37
2024-01-14T10:05:05.486Z,14.34
2024-01-14T10:07:34.727Z,14.31
2024-01-14T10:10:02.185Z,14.29
2024-01-14T10:12:30.484Z,14.28
2024-01-14T10:15:01.866Z,14.26
2024-01-14T10:17:30.924Z,14.24
2024-01-14T10:20:01.932Z,14.21
2024-01-14T10:22:30.159Z,14.21
2024-01-14T10:24:58.180Z,14.19
2024-01-14T10:27:35.366Z,14.17
2024-01-14T10:30:14.005Z,14.16
2024-01-14T10:33:16.830Z,14.15
2024-01-14T10:35:31.669Z,14.14
2024-01-14T10:38:00.015Z,14.12
2024-01-14T10:40:28.011Z,14.11
2024-01-14T10:42:55.933Z,14.10
2024-01-14T10:45:23.698Z,14.10
2024-01-14T10:48:00.560Z,14.09
2024-01-14T10:53:04.627Z,14.08
2024-01-14T10:55:41.801Z,14.05
2024-01-14T10:58:18.959Z,14.05
2024-01-14T11:00:51.492Z,14.05
2024-01-14T11:03:19.950Z,14.11
2024-01-14T11:05:47.840Z,14.19
2024-01-14T11:08:17.686Z,14.16
2024-01-14T11:10:46.060Z,14.15
2024-01-14T11:13:29.607Z,14.13
2024-01-14T11:16:14.933Z,14.09
2024-01-14T11:18:59.290Z,14.08
2024-01-14T11:21:48.907Z,14.10
2024-01-14T11:24:26.760Z,14.24
2024-01-14T11:26:56.121Z,14.33
2024-01-14T11:29:33.320Z,14.44
2024-01-14T11:32:14.064Z,14.47
2024-01-14T11:34:48.286Z,14.53
2024-01-14T11:37:31.847Z,14.56
2024-01-14T11:40:17.855Z,14.58
2024-01-14T11:42:48.385Z,14.65
2024-01-14T11:45:25.469Z,14.68
2024-01-14T11:47:54.797Z,14.71
2024-01-14T11:50:25.171Z,14.75
2024-01-14T11:52:54.406Z,14.76
2024-01-14T11:55:26.288Z,14.79
2024-01-14T11:57:55.243Z,14.82
2024-01-14T12:00:25.452Z,14.84
2024-01-14T12:03:10.543Z,14.87
2024-01-14T12:05:40.585Z,14.80
2024-01-14T12:08:09.745Z,14.72
2024-01-14T12:10:37.717Z,14.65
2024-01-14T12:13:10.489Z,14.58
2024-01-14T12:15:39.853Z,14.53
2024-01-14T12:18:09.230Z,14.49
2024-01-14T12:20:37.396Z,14.45
2024-01-14T12:23:07.540Z,14.42
2024-01-14T12:25:37.446Z,14.38
2024-01-14T12:28:05.272Z,14.38
2024-01-14T12:30:36.303Z,14.50
2024-01-14T12:33:07.523Z,14.59
2024-01-14T12:35:39.867Z,14.67
2024-01-14T12:38:09.448Z,14.72
2024-01-14T12:40:37.998Z,14.77
2024-01-14T12:43:10.459Z,14.81
2024-01-14T12:45:49.874Z,14.84
2024-01-14T12:48:23.308Z,14.91
2024-01-14T12:51:01.908Z,14.93
2024-01-14T12:53:31.104Z,15.01
2024-01-14T12:56:12.665Z,15.05
2024-01-14T12:58:40.744Z,14.93
2024-01-14T13:01:10.689Z,14.84
2024-01-14T13:03:42.359Z,14.77
2024-01-14T13:06:10.227Z,14.75
2024-01-14T13:08:37.671Z,14.87
2024-01-14T13:11:05.480Z,14.89
2024-01-14T13:13:36.739Z,14.81
2024-01-14T13:16:05.729Z,14.76
2024-01-14T13:18:33.190Z,14.70
2024-01-14T13:21:00.852Z,14.66
2024-01-14T13:23:28.232Z,14.60
2024-01-14T13:25:55.846Z,14.57
2024-01-14T13:28:24.702Z,14.54
2024-01-14T13:30:53.768Z,14.51
2024-01-14T13:33:21.409Z,14.49
2024-01-14T13:35:49.085Z,14.47
2024-01-14T13:38:16.493Z,14.57
2024-01-14T13:40:44.379Z,14.80
2024-01-14T13:43:12.113Z,14.94
2024-01-14T13:45:39.693Z,15.03
2024-01-14T13:48:07.420Z,15.15
2024-01-14T13:50:35.430Z,15.20
2024-01-14T13:53:02.799Z,15.07
2024-01-14T13:55:30.479Z,14.96
2024-01-14T13:57:57.849Z,14.90
2024-01-14T14:00:25.651Z,14.81
2024-01-14T14:02:53.459Z,14.75
2024-01-14T14:05:21.293Z,14.70
2024-01-14T14:07:49.119Z,14.67
2024-01-14T14:10:17.524Z,14.64
2024-01-14T14:12:45.396Z,14.59
2024-01-14T14:15:13.183Z,14.56
2024-01-14T14:17:43.133Z,14.53
2024-01-14T14:20:12.188Z,14.51
2024-01-14T14:22:39.740Z,14.49
2024-01-14T14:25:07.785Z,14.46
2024-01-14T14:27:35.136Z,14.44
2024-01-14T14:30:03.183Z,14.41
2024-01-14T14:32:30.860Z,14.39
2024-01-14T14:34:58.712Z,14.36
2024-01-14T14:37:27.688Z,14.34
2024-01-14T14:39:55.676Z,14.33
2024-01-14T14:42:23.471Z,14.32
2024-01-14T14:44:51.078Z,14.32
2024-01-14T14:47:20.658Z,14.42
2024-01-14T14:49:49.439Z,14.43
2024-01-14T14:52:16.960Z,14.39
2024-01-14T14:54:44.548Z,14.36
2024-01-14T14:57:11.907Z,14.34
2024-01-14T14:59:39.588Z,14.32
2024-01-14T15:02:07.124Z,14.29
2024-01-14T15:04:34.745Z,14.27
2024-01-14T15:07:02.221Z,14.25
2024-01-14T15:09:29.931Z,14.24
2024-01-14T15:11:57.409Z,14.22
2024-01-14T15:14:25.448Z,14.21
2024-01-14T15:16:53.550Z,14.19
2024-01-14T15:19:21.340Z,14.18
2024-01-14T15:21:49.079Z,14.17
2024-01-14T15:24:16.814Z,14.29
2024-01-14T15:26:44.575Z,14.32
2024-01-14T15:29:12.181Z,14.29
2024-01-14T15:31:39.980Z,14.27
2024-01-14T15:34:08.266Z,14.25
2024-01-14T15:36:36.045Z,14.23
2024-01-14T15:39:04.898Z,14.20
2024-01-14T15:41:36.204Z,14.19
2024-01-14T15:44:04.677Z,14.17
2024-01-14T15:46:32.528Z,14.16
2024-01-14T15:49:00.216Z,14.14
2024-01-14T15:51:28.343Z,14.11
2024-01-14T15:53:56.017Z,14.11
2024-01-14T15:56:23.771Z,14.10
2024-01-14T15:58:51.348Z,14.09
2024-01-14T16:01:21.360Z,14.07
2024-01-14T16:03:50.036Z,14.07
2024-01-14T16:06:18.179Z,14.05
2024-01-14T16:08:46.904Z,14.05
2024-01-14T16:11:15.672Z,14.03
2024-01-14T16:13:43.573Z,14.01
2024-01-14T16:16:11.423Z,14.02
2024-01-14T16:18:39.124Z,14.01
2024-01-14T16:21:08.148Z,14.01
2024-01-14T16:23:39.504Z,14.00
2024-01-14T16:26:09.346Z,13.99
2024-01-14T16:28:37.731Z,13.98
2024-01-14T16:31:11.658Z,13.99
2024-01-14T16:33:44.273Z,14.11
2024-01-14T16:36:14.570Z,14.30
2024-01-14T16:38:43.162Z,14.45
2024-01-14T16:41:10.815Z,14.59
2024-01-14T16:43:38.932Z,14.65
2024-01-14T16:46:06.995Z,14.73
2024-01-14T16:48:35.397Z,14.84
2024-01-14T16:51:09.412Z,14.89
2024-01-14T16:53:41.321Z,14.95
2024-01-14T16:56:14.056Z,14.97
2024-01-14T16:58:44.044Z,15.04
2024-01-14T17:01:16.793Z,15.08
2024-01-14T17:03:50.216Z,15.14
2024-01-14T17:06:18.853Z,15.13
2024-01-14T17:08:47.822Z,15.19
2024-01-14T17:11:19.514Z,15.21
2024-01-14T17:13:47.932Z,15.26
2024-01-14T17:16:27.006Z,15.26
2024-01-14T17:18:59.607Z,15.29
2024-01-14T17:21:28.339Z,15.31
2024-01-14T17:23:57.360Z,15.33
2024-01-14T17:26:24.741Z,15.34
2024-01-14T17:28:52.391Z,15.35
2024-01-14T17:31:20.537Z,15.38
2024-01-14T17:33:48.750Z,15.38
2024-01-14T17:36:18.508Z,15.41
2024-01-14T17:38:48.386Z,15.42
2024-01-14T17:41:16.647Z,15.46
2024-01-14T17:43:45.044Z,15.45
2024-01-14T17:46:13.208Z,15.43
2024-01-14T17:48:44.170Z,15.50
2024-01-14T17:51:13.229Z,15.51
2024-01-14T17:53:42.547Z,15.53
2024-01-14T17:56:10.309Z,15.54
2024-01-14T17:58:38.837Z,15.53
2024-01-14T18:01:09.996Z,15.53
2024-01-14T18:03:40.616Z,15.55
2024-01-14T18:06:10.323Z,15.55
2024-01-14T18:08:38.631Z,15.55
2024-01-14T18:11:06.040Z,15.60
2024-01-14T18:13:33.629Z,15.59
2024-01-14T18:16:01.651Z,15.59
2024-01-14T18:18:29.604Z,15.60
2024-01-14T18:20:58.626Z,15.58
2024-01-14T18:23:26.296Z,15.59
2024-01-14T18:25:53.953Z,15.62
2024-01-14T18:28:21.669Z,15.63
2024-01-14T18:30:49.493Z,15.62
2024-01-14T18:33:17.444Z,15.64
2024-01-14T18:35:46.767Z,15.63
2024-01-14T18:38:16.124Z,15.64
2024-01-14T18:40:44.123Z,15.64
2024-01-14T18:43:12.582Z,15.67
2024-01-14T18:45:40.120Z,15.67
2024-01-14T18:48:08.870Z,15.67
2024-01-14T18:50:37.038Z,15.67
2024-01-14T18:53:05.938Z,15.68
2024-01-14T18:55:38.948Z,15.66
2024-01-14T18:58:10.224Z,15.66
2024-01-14T19:00:37.771Z,15.67
2024-01-14T19:03:05.901Z,15.68
2024-01-14T19:05:34.543Z,15.72
2024-01-14T19:08:02.221Z,15.71
2024-01-14T19:10:29.730Z,15.73
2024-01-14T19:13:00.201Z,15.73
2024-01-14T19:15:28.365Z,15.75
2024-01-14T19:17:56.340Z,15.76
2024-01-14T19:20:24.051Z,15.75
2024-01-14T19:22:52.005Z,15.77
2024-01-14T19:25:19.715Z,15.81
2024-01-14T19:27:48.642Z,15.80
2024-01-14T19:30:16.878Z,15.80
2024-01-14T19:32:44.901Z,15.82
2024-01-14T19:35:12.374Z,15.81
2024-01-14T19:37:40.273Z,15.79
2024-01-14T19:40:08.149Z,15.82
2024-01-14T19:42:35.998Z,15.82
2024-01-14T19:45:03.712Z,15.84
2024-01-14T19:47:31.497Z,15.83
2024-01-14T19:49:58.998Z,15.84
2024-01-14T19:52:26.767Z,15.86
2024-01-14T19:54:54.199Z,15.85
2024-01-14T19:57:21.937Z,15.87
2024-01-14T19:59:49.681Z,15.85
2024-01-14T20:02:17.450Z,15.86
2024-01-14T20:04:44.925Z,15.85
2024-01-14T20:07:12.606Z,15.87
2024-01-14T20:09:40.021Z,15.87
2024-01-14T20:12:07.681Z,15.86
2024-01-14T20:14:36.911Z,15.85
2024-01-14T20:17:05.676Z,15.84
2024-01-14T20:19:33.377Z,15.88
2024-01-14T20:22:01.266Z,15.90
2024-01-14T20:24:32.042Z,15.89
2024-01-14T20:26:59.741Z,15.90
2024-01-14T20:29:27.330Z,15.94
2024-01-14T20:31:55.160Z,15.94
2024-01-14T20:34:24.625Z,15.97
2024-01-14T20:36:53.528Z,15.95
2024-01-14T20:39:21.374Z,15.96
2024-01-14T20:41:49.120Z,15.96
2024-01-14T20:44:16.518Z,15.99
2024-01-14T20:46:44.390Z,16.01
2024-01-14T20:49:11.947Z,16.01
2024-01-14T20:51:39.873Z,16.03
2024-01-14T20:54:07.266Z,16.03
2024-01-14T20:56:35.039Z,16.03
2024-01-14T20:59:02.348Z,16.02
2024-01-14T21:01:35.187Z,16.02
2024-01-14T21:04:03.677Z,16.02
2024-01-14T21:06:32.396Z,16.03
2024-01-14T21:08:59.839Z,16.02
2024-01-14T21:11:27.706Z,16.03
2024-01-14T21:13:55.330Z,16.07
2024-01-14T21:16:23.034Z,16.03
2024-01-14T21:18:50.635Z,16.06
2024-01-14T21:21:25.315Z,16.04
2024-01-14T21:23:52.901Z,16.09
2024-01-14T21:26:20.552Z,16.09
2024-01-14T21:28:51.302Z,16.07
2024-01-14T21:31:19.124Z,16.04
2024-01-14T21:33:46.569Z,16.08
2024-01-14T21:36:14.868Z,16.07
2024-01-14T21:38:42.224Z,16.09
2024-01-14T21:41:10.420Z,16.10
2024-01-14T21:43:38.086Z,16.10
2024-01-14T21:46:07.134Z,16.09
2024-01-14T21:48:35.160Z,16.09
2024-01-14T21:51:03.178Z,16.10
2024-01-14T21:53:30.910Z,16.12
2024-01-14T21:55:58.632Z,16.11
2024-01-14T21:58:25.999Z,16.13
2024-01-14T22:00:54.187Z,16.14
2024-01-14T22:03:22.733Z,16.14
2024-01-14T22:05:50.886Z,16.14
2024-01-14T22:08:18.784Z,16.14
2024-01-14T22:10:46.426Z,16.13
2024-01-14T22:13:13.818Z,16.14
2024-01-14T22:15:42.184Z,16.15
2024-01-14T22:18:09.835Z,16.13
2024-01-14T22:20:37.571Z,16.14
2024-01-14T22:23:05.321Z,16.15
2024-01-14T22:25:32.947Z,16.14
2024-01-14T22:28:00.617Z,16.15
2024-01-14T22:30:28.330Z,16.13
2024-01-14T22:32:55.779Z,16.13
2024-01-14T22:35:25.523Z,16.12
2024-01-14T22:37:54.226Z,16.15
2024-01-14T22:40:21.842Z,16.15
2024-01-14T22:42:49.241Z,16.17
2024-01-14T22:45:17.197Z,16.15
2024-01-14T22:47:44.510Z,16.16
2024-01-14T22:50:12.055Z,16.16
2024-01-14T22:52:39.425Z,16.17
2024-01-14T22:55:07.337Z,16.17
2024-01-14T22:57:34.787Z,16.18
2024-01-14T23:00:02.896Z,16.16
2024-01-14T23:02:32.129Z,16.17
2024-01-14T23:05:00.855Z,16.17
2024-01-14T23:07:28.384Z,16.17
2024-01-14T23:09:56.114Z,16.18
2024-01-14T23:12:23.675Z,16.19
2024-01-14T23:14:51.343Z,16.18
2024-01-14T23:17:18.682Z,16.19
2024-01-14T23:19:46.509Z,16.19
2024-01-14T23:22:14.080Z,16.17
2024-01-14T23:24:41.721Z,16.17
2024-01-14T23:27:09.182Z,16.17
2024-01-14T23:29:37.282Z,16.18
2024-01-14T23:32:04.892Z,16.18
2024-01-14T23:34:32.761Z,16.17
2024-01-14T23:37:00.518Z,16.19
2024-01-14T23:39:28.136Z,16.20
2024-01-14T23:41:55.477Z,16.16
2024-01-14T23:44:23.088Z,16.18
2024-01-14T23:46:50.542Z,16.19
2024-01-14T23:49:18.232Z,16.19
2024-01-14T23:51:46.126Z,16.21
2024-01-14T23:54:13.869Z,16.17
2024-01-14T23:56:41.151Z,16.18
2024-01-14T23:59:08.897Z,16.19
